createdAt,value
2018-06-07T00:00:33.768Z,17.92
2018-06-07T00:01:34.236Z,17.90
2018-06-07T00:02:32.946Z,17.89
2018-06-07T00:03:32.483Z,17.85
2018-06-07T00:04:32.960Z,17.82
2018-06-07T00:05:33.499Z,17.85
2018-06-07T00:06:33.601Z,17.83
2018-06-07T00:07:33.308Z,17.85
2018-06-07T00:08:34.135Z,17.85
2018-06-07T00:10:15.170Z,17.82
2018-06-07T00:11:16.234Z,17.80
2018-06-07T00:12:36.666Z,17.79
2018-06-07T00:13:38.091Z,17.76
2018-06-07T00:14:37.587Z,17.76
2018-06-07T00:15:37.145Z,17.74
2018-06-07T00:16:37.936Z,17.72
2018-06-07T00:17:37.741Z,17.71
2018-06-07T00:19:00.239Z,17.68
2018-06-07T00:20:21.687Z,17.65
2018-06-07T00:21:22.353Z,17.64
2018-06-07T00:22:22.221Z,17.63
2018-06-07T00:23:21.913Z,17.59
2018-06-07T00:24:21.481Z,17.59
2018-06-07T00:25:21.930Z,17.57
2018-06-07T00:26:22.622Z,17.57
2018-06-07T00:27:22.182Z,17.57
2018-06-07T00:28:21.983Z,17.54
2018-06-07T00:29:43.031Z,17.51
2018-06-07T00:30:43.551Z,17.49
2018-06-07T00:31:43.266Z,17.48
2018-06-07T00:33:05.744Z,17.45
2018-06-07T00:34:06.119Z,17.46
2018-06-07T00:35:06.052Z,17.45
2018-06-07T00:36:05.998Z,17.44
2018-06-07T00:37:05.728Z,17.42
2018-06-07T00:38:06.484Z,17.42
2018-06-07T00:39:06.363Z,17.44
2018-06-07T00:40:06.019Z,17.42
2018-06-07T00:41:05.715Z,17.41
2018-06-07T00:42:06.211Z,17.39
2018-06-07T00:43:05.982Z,17.38
2018-06-07T00:44:05.775Z,17.36
2018-06-07T00:45:06.413Z,17.33
2018-06-07T00:46:05.944Z,17.30
2018-06-07T00:47:05.387Z,17.27
2018-06-07T00:48:05.736Z,17.27
2018-06-07T00:49:07.753Z,17.24
2018-06-07T00:50:06.429Z,17.26
2018-06-07T00:51:05.924Z,17.23
2018-06-07T00:52:05.829Z,17.23
2018-06-07T00:53:06.277Z,17.23
2018-06-07T00:54:07.126Z,17.22
2018-06-07T00:55:05.502Z,17.20
2018-06-07T00:56:06.338Z,17.19
2018-06-07T00:57:06.271Z,17.15
2018-06-07T00:58:06.244Z,17.15
2018-06-07T00:59:05.885Z,17.12
2018-06-07T01:00:06.431Z,17.11
2018-06-07T01:01:06.194Z,17.09
2018-06-07T01:02:30.513Z,17.09
2018-06-07T01:03:31.364Z,17.08
2018-06-07T01:04:31.202Z,17.06
2018-06-07T01:05:52.541Z,17.05
2018-06-07T01:06:54.387Z,17.04
2018-06-07T01:07:53.278Z,17.02
2018-06-07T01:08:53.176Z,16.99
2018-06-07T01:10:36.290Z,16.96
2018-06-07T01:11:36.718Z,16.94
2018-06-07T01:12:36.289Z,16.91
2018-06-07T01:13:36.955Z,16.90
2018-06-07T01:14:36.525Z,16.89
2018-06-07T01:15:36.324Z,16.86
2018-06-07T01:16:36.683Z,16.84
2018-06-07T01:17:36.086Z,16.83
2018-06-07T01:18:36.832Z,16.83
2018-06-07T01:19:36.352Z,16.81
2018-06-07T01:20:36.728Z,16.83
2018-06-07T01:21:36.230Z,16.84
2018-06-07T01:22:37.164Z,16.81
2018-06-07T01:23:36.842Z,16.78
2018-06-07T01:24:36.443Z,16.81
2018-06-07T01:25:36.088Z,16.81
2018-06-07T01:26:36.742Z,16.81
2018-06-07T01:27:36.496Z,16.79
2018-06-07T01:28:36.311Z,16.76
2018-06-07T01:29:37.035Z,16.75
2018-06-07T01:30:36.802Z,16.75
2018-06-07T01:31:36.567Z,16.74
2018-06-07T01:32:36.203Z,16.72
2018-06-07T01:33:36.763Z,16.69
2018-06-07T01:34:36.348Z,16.68
2018-06-07T01:35:36.904Z,16.66
2018-06-07T01:36:36.651Z,16.66
2018-06-07T01:37:36.505Z,16.66
2018-06-07T01:38:36.172Z,16.64
2018-06-07T01:39:37.101Z,16.58
2018-06-07T01:40:37.005Z,16.58
2018-06-07T01:41:58.034Z,16.57
2018-06-07T01:42:58.790Z,16.56
2018-06-07T01:43:58.701Z,16.53
2018-06-07T01:44:58.384Z,16.53
2018-06-07T01:45:58.062Z,16.53
2018-06-07T01:46:58.739Z,16.53
2018-06-07T01:47:58.525Z,16.54
2018-06-07T01:48:58.451Z,16.53
2018-06-07T01:50:18.991Z,16.50
2018-06-07T01:51:20.293Z,16.49
2018-06-07T01:52:20.804Z,16.49
2018-06-07T01:53:19.341Z,16.47
2018-06-07T01:54:19.419Z,16.47
2018-06-07T01:55:19.292Z,16.47
2018-06-07T01:56:19.785Z,16.47
2018-06-07T01:57:41.300Z,16.46
2018-06-07T01:58:42.028Z,16.42
2018-06-07T01:59:41.436Z,16.41
2018-06-07T02:00:42.188Z,16.39
2018-06-07T02:01:42.177Z,16.38
2018-06-07T02:02:42.012Z,16.36
2018-06-07T02:03:41.799Z,16.38
2018-06-07T02:04:41.638Z,16.35
2018-06-07T02:05:41.437Z,16.36
2018-06-07T02:06:41.179Z,16.35
2018-06-07T02:07:41.944Z,16.36
2018-06-07T02:08:41.444Z,16.33
2018-06-07T02:10:02.739Z,16.29
2018-06-07T02:11:03.358Z,16.29
2018-06-07T02:12:03.014Z,16.28
2018-06-07T02:13:03.805Z,16.26
2018-06-07T02:14:46.167Z,16.24
2018-06-07T02:15:46.808Z,16.21
2018-06-07T02:16:46.596Z,16.24
2018-06-07T02:17:46.398Z,16.23
2018-06-07T02:18:47.089Z,16.17
2018-06-07T02:19:47.778Z,16.15
2018-06-07T02:20:46.665Z,16.13
2018-06-07T02:21:46.595Z,16.10
2018-06-07T02:23:09.025Z,16.10
2018-06-07T02:24:09.708Z,16.10
2018-06-07T02:25:09.138Z,16.13
2018-06-07T02:26:09.667Z,16.15
2018-06-07T02:27:30.631Z,16.15
2018-06-07T02:28:31.278Z,16.13
2018-06-07T02:29:30.670Z,16.13
2018-06-07T02:30:30.948Z,16.10
2018-06-07T02:31:31.749Z,16.05
2018-06-07T02:32:52.636Z,16.02
2018-06-07T02:33:53.506Z,16.04
2018-06-07T02:35:14.173Z,16.02
2018-06-07T02:36:14.616Z,16.02
2018-06-07T02:37:36.950Z,16.01
2018-06-07T02:38:37.642Z,16.01
2018-06-07T02:39:37.931Z,16.01
2018-06-07T02:40:37.605Z,16.00
2018-06-07T02:41:37.717Z,16.00
2018-06-07T02:42:37.593Z,16.00
2018-06-07T02:43:37.245Z,15.97
2018-06-07T02:44:37.803Z,15.95
2018-06-07T02:45:37.409Z,15.94
2018-06-07T02:46:37.201Z,15.91
2018-06-07T02:47:37.328Z,15.90
2018-06-07T02:48:37.070Z,15.88
2018-06-07T02:49:37.119Z,15.84
2018-06-07T02:50:37.036Z,15.83
2018-06-07T02:51:37.325Z,15.83
2018-06-07T02:52:37.101Z,15.83
2018-06-07T02:53:57.970Z,15.82
2018-06-07T02:54:58.867Z,15.80
2018-06-07T02:55:58.672Z,15.82
2018-06-07T02:56:58.436Z,15.80
2018-06-07T02:57:58.328Z,15.82
2018-06-07T02:58:58.159Z,15.79
2018-06-07T02:59:58.656Z,15.80
2018-06-07T03:00:58.658Z,15.82
2018-06-07T03:01:58.110Z,15.79
2018-06-07T03:02:58.991Z,15.77
2018-06-07T03:03:59.628Z,15.77
2018-06-07T03:04:58.352Z,15.79
2018-06-07T03:05:58.364Z,15.79
2018-06-07T03:06:58.952Z,15.76
2018-06-07T03:08:20.666Z,15.73
2018-06-07T03:09:21.284Z,15.72
2018-06-07T03:10:21.052Z,15.67
2018-06-07T03:11:20.943Z,15.68
2018-06-07T03:12:20.719Z,15.67
2018-06-07T03:13:41.337Z,15.67
2018-06-07T03:14:42.159Z,15.67
2018-06-07T03:16:24.954Z,15.65
2018-06-07T03:17:25.696Z,15.64
2018-06-07T03:18:26.023Z,15.64
2018-06-07T03:19:25.608Z,15.64
2018-06-07T03:20:25.494Z,15.64
2018-06-07T03:21:25.101Z,15.65
2018-06-07T03:22:25.623Z,15.65
2018-06-07T03:23:25.570Z,15.64
2018-06-07T03:24:25.487Z,15.64
2018-06-07T03:25:46.739Z,15.64
2018-06-07T03:26:47.681Z,15.64
2018-06-07T03:27:47.560Z,15.64
2018-06-07T03:28:47.321Z,15.65
2018-06-07T03:29:47.293Z,15.65
2018-06-07T03:31:29.879Z,15.64
2018-06-07T03:32:31.522Z,15.62
2018-06-07T03:33:30.367Z,15.62
2018-06-07T03:34:30.125Z,15.62
2018-06-07T03:35:31.787Z,15.61
2018-06-07T03:36:30.716Z,15.61
2018-06-07T03:37:30.560Z,15.61
2018-06-07T03:38:30.221Z,15.64
2018-06-07T03:39:30.180Z,15.67
2018-06-07T03:40:31.599Z,15.64
2018-06-07T03:41:30.252Z,15.62
2018-06-07T03:42:32.010Z,15.65
2018-06-07T03:43:30.694Z,15.64
2018-06-07T03:44:51.880Z,15.64
2018-06-07T03:45:52.409Z,15.65
2018-06-07T03:46:52.952Z,15.65
2018-06-07T03:47:52.680Z,15.68
2018-06-07T03:48:52.300Z,15.72
2018-06-07T03:49:52.884Z,15.73
2018-06-07T03:50:52.477Z,15.73
2018-06-07T03:51:52.477Z,15.75
2018-06-07T03:52:52.207Z,15.73
2018-06-07T03:53:52.924Z,15.73
2018-06-07T03:54:52.567Z,15.76
2018-06-07T03:55:52.306Z,15.77
2018-06-07T03:56:52.205Z,15.77
2018-06-07T03:57:53.113Z,15.79
2018-06-07T03:59:14.391Z,15.79
2018-06-07T04:00:15.417Z,15.80
2018-06-07T04:01:14.589Z,15.82
2018-06-07T04:02:14.342Z,15.84
2018-06-07T04:03:14.480Z,15.86
2018-06-07T04:04:14.127Z,15.86
2018-06-07T04:05:14.988Z,15.90
2018-06-07T04:06:36.338Z,15.88
2018-06-07T04:07:37.530Z,15.86
2018-06-07T04:08:36.410Z,15.90
2018-06-07T04:09:36.136Z,15.94
2018-06-07T04:10:36.761Z,15.92
2018-06-07T04:12:40.970Z,15.95
2018-06-07T04:13:42.724Z,15.98
2018-06-07T04:14:41.269Z,15.98
2018-06-07T04:15:41.801Z,16.00
2018-06-07T04:16:42.122Z,16.01
2018-06-07T04:17:41.915Z,16.02
2018-06-07T04:19:03.231Z,16.04
2018-06-07T04:20:05.651Z,16.08
2018-06-07T04:21:04.465Z,16.09
2018-06-07T04:22:04.660Z,16.12
2018-06-07T04:23:04.786Z,16.12
2018-06-07T04:24:03.928Z,16.13
2018-06-07T04:25:03.687Z,16.17
2018-06-07T04:26:04.459Z,16.20
2018-06-07T04:27:04.178Z,16.23
2018-06-07T04:28:25.389Z,16.29
2018-06-07T04:29:26.380Z,16.32
2018-06-07T04:30:26.987Z,16.35
2018-06-07T04:31:25.935Z,16.39
2018-06-07T04:32:25.657Z,16.43
2018-06-07T04:33:27.179Z,16.46
2018-06-07T04:34:25.742Z,16.51
2018-06-07T04:35:25.615Z,16.57
2018-06-07T04:36:49.078Z,16.61
2018-06-07T04:37:47.933Z,16.65
2018-06-07T04:38:48.030Z,16.71
2018-06-07T04:39:47.893Z,16.75
2018-06-07T04:40:47.626Z,16.81
2018-06-07T04:41:48.234Z,16.87
2018-06-07T04:42:48.088Z,16.90
2018-06-07T04:43:47.764Z,16.96
2018-06-07T04:44:48.669Z,17.02
2018-06-07T04:46:32.351Z,17.08
2018-06-07T04:47:33.028Z,17.14
2018-06-07T04:48:33.077Z,17.20
2018-06-07T04:49:32.516Z,17.23
2018-06-07T04:50:33.178Z,17.29
2018-06-07T04:51:32.932Z,17.34
2018-06-07T04:52:55.022Z,17.41
2018-06-07T04:53:55.575Z,17.46
2018-06-07T04:54:55.425Z,17.52
2018-06-07T04:55:55.483Z,17.56
2018-06-07T04:56:55.360Z,17.63
2018-06-07T04:57:55.240Z,17.68
2018-06-07T04:58:54.922Z,17.72
2018-06-07T04:59:55.698Z,17.79
2018-06-07T05:01:17.015Z,17.85
2018-06-07T05:02:17.661Z,17.92
2018-06-07T05:03:17.885Z,17.97
2018-06-07T05:04:17.692Z,18.07
2018-06-07T05:05:18.054Z,18.13
2018-06-07T05:06:17.120Z,18.22
2018-06-07T05:08:00.748Z,18.33
2018-06-07T05:09:01.365Z,18.40
2018-06-07T05:10:01.828Z,18.45
2018-06-07T05:11:00.609Z,18.56
2018-06-07T05:12:01.557Z,18.68
2018-06-07T05:13:01.606Z,18.77
2018-06-07T05:14:22.947Z,18.92
2018-06-07T05:15:23.630Z,19.04
2018-06-07T05:16:45.069Z,19.14
2018-06-07T05:17:45.775Z,19.22
2018-06-07T05:19:07.032Z,19.26
2018-06-07T05:20:08.344Z,19.30
2018-06-07T05:21:07.256Z,19.36
2018-06-07T05:22:08.154Z,19.41
2018-06-07T05:23:07.549Z,19.48
2018-06-07T05:24:28.918Z,19.55
2018-06-07T05:25:30.478Z,19.64
2018-06-07T05:26:29.478Z,19.73
2018-06-07T05:27:29.773Z,19.81
2018-06-07T05:28:29.662Z,19.88
2018-06-07T05:29:51.107Z,19.99
2018-06-07T05:30:52.816Z,20.06
2018-06-07T05:31:51.473Z,20.13
2018-06-07T05:32:51.240Z,20.22
2018-06-07T05:33:52.079Z,20.29
2018-06-07T05:34:52.227Z,20.41
2018-06-07T05:35:51.266Z,20.44
2018-06-07T05:36:51.176Z,20.50
2018-06-07T05:37:51.170Z,20.55
2018-06-07T05:38:50.907Z,20.60
2018-06-07T05:40:13.089Z,20.69
2018-06-07T05:41:35.505Z,20.77
2018-06-07T05:42:36.242Z,20.84
2018-06-07T05:43:35.866Z,20.95
2018-06-07T05:44:56.824Z,21.11
2018-06-07T05:45:57.541Z,21.22
2018-06-07T05:46:58.818Z,21.30
2018-06-07T05:48:18.929Z,21.43
2018-06-07T05:49:19.940Z,21.57
2018-06-07T05:50:19.948Z,21.61
2018-06-07T05:51:20.022Z,21.73
2018-06-07T05:52:41.958Z,21.96
2018-06-07T05:53:41.607Z,22.07
2018-06-07T05:54:42.374Z,22.17
2018-06-07T05:55:42.344Z,22.25
2018-06-07T05:57:03.994Z,22.33
2018-06-07T05:58:04.858Z,22.51
2018-06-07T05:59:04.959Z,22.65
2018-06-07T06:00:04.768Z,22.75
2018-06-07T06:01:04.994Z,22.96
2018-06-07T06:02:03.880Z,23.12
2018-06-07T06:03:04.553Z,23.32
2018-06-07T06:04:05.068Z,23.36
2018-06-07T06:05:04.899Z,23.34
2018-06-07T06:06:26.609Z,23.54
2018-06-07T06:07:27.608Z,23.69
2018-06-07T06:08:27.410Z,23.81
2018-06-07T06:09:27.221Z,24.03
2018-06-07T06:10:26.765Z,24.16
2018-06-07T06:11:27.600Z,24.24
2018-06-07T06:12:27.797Z,24.33
2018-06-07T06:13:27.492Z,24.38
2018-06-07T06:14:49.076Z,24.33
2018-06-07T06:16:12.066Z,24.61
2018-06-07T06:17:12.074Z,24.77
2018-06-07T06:18:12.116Z,24.65
2018-06-07T06:19:12.222Z,24.74
2018-06-07T06:20:12.265Z,24.73
2018-06-07T06:21:33.776Z,24.47
2018-06-07T06:22:35.111Z,24.43
2018-06-07T06:23:34.196Z,24.39
2018-06-07T06:25:17.062Z,24.70
2018-06-07T06:26:18.038Z,24.99
2018-06-07T06:27:17.716Z,25.16
2018-06-07T06:28:17.630Z,25.32
2018-06-07T06:29:17.144Z,25.51
2018-06-07T06:30:18.238Z,25.69
2018-06-07T06:31:18.148Z,25.63
2018-06-07T06:32:17.739Z,25.69
2018-06-07T06:33:17.761Z,25.84
2018-06-07T06:34:17.853Z,25.96
2018-06-07T06:35:39.568Z,26.25
2018-06-07T06:36:39.640Z,26.33
2018-06-07T06:37:40.220Z,26.37
2018-06-07T06:38:39.971Z,26.52
2018-06-07T06:39:39.966Z,26.47
2018-06-07T06:40:40.075Z,26.45
2018-06-07T06:41:39.532Z,26.59
2018-06-07T06:42:40.438Z,26.65
2018-06-07T06:43:40.051Z,27.02
2018-06-07T06:45:01.544Z,27.36
2018-06-07T06:46:02.402Z,27.65
2018-06-07T06:47:02.785Z,27.54
2018-06-07T06:48:01.841Z,27.71
2018-06-07T06:49:02.398Z,27.92
2018-06-07T06:50:23.696Z,28.02
2018-06-07T06:51:24.656Z,28.04
2018-06-07T06:52:23.710Z,28.08
2018-06-07T06:53:24.444Z,28.20
2018-06-07T06:54:24.469Z,28.41
2018-06-07T06:55:25.091Z,28.62
2018-06-07T06:56:24.369Z,28.88
2018-06-07T06:57:24.633Z,29.19
2018-06-07T06:58:25.544Z,29.44
2018-06-07T06:59:24.541Z,29.69
2018-06-07T07:00:26.969Z,29.79
2018-06-07T07:01:45.307Z,29.94
2018-06-07T07:02:46.060Z,30.12
2018-06-07T07:03:46.032Z,30.21
2018-06-07T07:04:46.212Z,30.24
2018-06-07T07:05:46.190Z,30.37
2018-06-07T07:06:46.143Z,30.63
2018-06-07T07:07:46.112Z,30.81
2018-06-07T07:08:46.145Z,30.75
2018-06-07T07:09:46.424Z,30.68
2018-06-07T07:10:46.706Z,30.62
2018-06-07T07:11:45.824Z,30.66
2018-06-07T07:12:45.613Z,30.70
2018-06-07T07:13:45.630Z,30.88
2018-06-07T07:14:45.630Z,31.03
2018-06-07T07:15:45.535Z,31.22
2018-06-07T07:17:08.184Z,31.55
2018-06-07T07:18:08.146Z,31.66
2018-06-07T07:19:09.209Z,31.66
2018-06-07T07:20:08.131Z,31.61
2018-06-07T07:21:08.887Z,31.64
2018-06-07T07:22:09.391Z,31.74
2018-06-07T07:23:08.535Z,31.58
2018-06-07T07:24:29.762Z,31.71
2018-06-07T07:25:30.872Z,31.85
2018-06-07T07:26:54.286Z,32.00
2018-06-07T07:27:53.027Z,32.21
2018-06-07T07:28:52.799Z,32.43
2018-06-07T07:30:14.500Z,32.65
2018-06-07T07:31:15.292Z,32.90
2018-06-07T07:32:15.478Z,33.04
2018-06-07T07:33:15.411Z,33.02
2018-06-07T07:34:14.388Z,32.75
2018-06-07T07:35:39.065Z,32.80
2018-06-07T07:37:02.749Z,32.89
2018-06-07T07:38:03.584Z,32.93
2018-06-07T07:39:03.486Z,32.80
2018-06-07T07:40:03.211Z,33.05
2018-06-07T07:41:02.880Z,33.15
2018-06-07T07:42:03.565Z,33.11
2018-06-07T07:43:03.537Z,33.04
2018-06-07T07:44:03.717Z,33.07
2018-06-07T07:45:03.927Z,33.22
2018-06-07T07:46:03.011Z,33.43
2018-06-07T07:47:03.841Z,33.65
2018-06-07T07:48:02.936Z,33.53
2018-06-07T07:49:03.657Z,33.62
2018-06-07T07:50:04.513Z,33.67
2018-06-07T07:51:03.182Z,33.87
2018-06-07T07:52:02.980Z,33.95
2018-06-07T07:53:02.834Z,33.87
2018-06-07T07:54:28.119Z,34.03
2018-06-07T07:55:27.783Z,34.01
2018-06-07T07:56:28.810Z,33.83
2018-06-07T07:57:28.655Z,33.61
2018-06-07T07:58:28.656Z,33.62
2018-06-07T07:59:27.805Z,33.69
2018-06-07T08:00:28.433Z,33.65
2018-06-07T08:01:27.986Z,33.73
2018-06-07T08:02:27.539Z,33.84
2018-06-07T08:03:28.013Z,34.01
2018-06-07T08:04:27.869Z,33.99
2018-06-07T08:05:28.332Z,34.08
2018-06-07T08:06:28.018Z,33.94
2018-06-07T08:07:27.894Z,34.06
2018-06-07T08:08:27.598Z,33.95
2018-06-07T08:09:28.635Z,34.06
2018-06-07T08:10:28.572Z,34.02
2018-06-07T08:11:28.717Z,34.18
2018-06-07T08:12:28.682Z,34.27
2018-06-07T08:13:28.689Z,34.33
2018-06-07T08:14:28.284Z,34.17
2018-06-07T08:15:28.329Z,34.21
2018-06-07T08:16:28.436Z,34.21
2018-06-07T08:17:28.341Z,34.14
2018-06-07T08:18:28.105Z,34.24
2018-06-07T08:19:28.265Z,34.38
2018-06-07T08:20:27.990Z,34.55
2018-06-07T08:21:27.751Z,34.67
2018-06-07T08:22:28.722Z,34.70
2018-06-07T08:23:28.688Z,34.92
2018-06-07T08:24:28.794Z,34.86
2018-06-07T08:25:28.593Z,34.75
2018-06-07T08:26:28.114Z,34.71
2018-06-07T08:27:27.841Z,34.58
2018-06-07T08:28:28.461Z,34.62
2018-06-07T08:29:28.477Z,34.48
2018-06-07T08:30:28.194Z,34.74
2018-06-07T08:31:28.119Z,34.95
2018-06-07T08:32:28.720Z,34.93
2018-06-07T08:33:36.218Z,35.12
2018-06-07T08:34:34.478Z,35.34
2018-06-07T08:35:28.244Z,35.30
2018-06-07T08:36:28.317Z,35.31
2018-06-07T08:37:28.103Z,35.22
2018-06-07T08:38:50.024Z,35.19
2018-06-07T08:39:49.790Z,35.37
2018-06-07T08:40:49.734Z,35.30
2018-06-07T08:41:50.027Z,35.05
2018-06-07T08:42:50.012Z,34.96
2018-06-07T08:43:50.464Z,35.15
2018-06-07T08:44:50.320Z,35.39
2018-06-07T08:46:11.198Z,35.46
2018-06-07T08:47:35.686Z,35.70
2018-06-07T08:48:36.301Z,36.01
2018-06-07T08:49:37.521Z,35.88
2018-06-07T08:51:01.655Z,35.68
2018-06-07T08:52:14.745Z,36.02
2018-06-07T08:53:15.581Z,35.93
2018-06-07T08:54:15.483Z,35.92
2018-06-07T08:55:36.786Z,35.79
2018-06-07T08:56:59.351Z,35.61
2018-06-07T08:58:00.721Z,35.89
2018-06-07T08:58:59.639Z,35.80
2018-06-07T08:59:59.666Z,36.17
2018-06-07T09:00:59.708Z,36.24
2018-06-07T09:02:00.276Z,36.07
2018-06-07T09:03:00.123Z,36.02
2018-06-07T09:04:00.473Z,35.90
2018-06-07T09:05:00.361Z,36.14
2018-06-07T09:06:00.423Z,36.54
2018-06-07T09:07:01.088Z,36.83
2018-06-07T09:08:00.257Z,36.79
2018-06-07T09:08:59.989Z,36.84
2018-06-07T09:10:21.326Z,37.08
2018-06-07T09:11:22.321Z,37.17
2018-06-07T09:12:21.407Z,36.99
2018-06-07T09:13:21.139Z,37.01
2018-06-07T09:14:22.209Z,37.10
2018-06-07T09:15:22.143Z,37.14
2018-06-07T09:16:22.251Z,37.18
2018-06-07T09:17:21.990Z,37.48
2018-06-07T09:18:21.596Z,37.82
2018-06-07T09:19:21.128Z,37.87
2018-06-07T09:20:21.903Z,37.99
2018-06-07T09:21:21.606Z,37.80
2018-06-07T09:22:21.442Z,37.64
2018-06-07T09:23:21.060Z,37.51
2018-06-07T09:24:21.669Z,37.49
2018-06-07T09:25:21.270Z,37.63
2018-06-07T09:26:21.933Z,37.93
2018-06-07T09:27:21.760Z,38.09
2018-06-07T09:28:21.480Z,38.14
2018-06-07T09:29:27.142Z,37.89
2018-06-07T09:30:26.266Z,37.74
2018-06-07T09:31:21.910Z,37.74
2018-06-07T09:32:45.755Z,37.94
2018-06-07T09:34:50.611Z,38.33
2018-06-07T09:36:12.817Z,38.26
2018-06-07T09:37:34.854Z,38.04
2018-06-07T09:38:57.422Z,37.94
2018-06-07T09:39:58.042Z,38.27
2018-06-07T09:41:18.868Z,38.43
2018-06-07T09:42:19.599Z,38.45
2018-06-07T09:43:19.309Z,38.68
2018-06-07T09:44:19.178Z,38.69
2018-06-07T09:45:18.899Z,38.52
2018-06-07T09:46:19.756Z,38.80
2018-06-07T09:47:19.421Z,39.17
2018-06-07T09:48:42.467Z,39.26
2018-06-07T09:49:42.908Z,39.21
2018-06-07T09:50:42.937Z,39.21
2018-06-07T09:52:04.362Z,39.03
2018-06-07T09:53:05.322Z,38.80
2018-06-07T09:54:05.045Z,38.60
2018-06-07T09:55:04.934Z,38.17
2018-06-07T09:56:15.965Z,37.83
2018-06-07T09:57:07.579Z,38.08
2018-06-07T09:58:05.420Z,38.30
2018-06-07T09:59:15.006Z,38.57
2018-06-07T10:00:11.889Z,39.06
2018-06-07T10:01:13.709Z,38.76
2018-06-07T10:02:04.622Z,38.46
2018-06-07T10:03:04.415Z,38.28
2018-06-07T10:04:27.243Z,38.65
2018-06-07T10:05:49.313Z,39.00
2018-06-07T10:07:14.345Z,39.34
2018-06-07T10:08:18.482Z,39.46
2018-06-07T10:09:19.963Z,39.09
2018-06-07T10:10:28.453Z,38.83
2018-06-07T10:11:22.383Z,38.95
2018-06-07T10:12:15.641Z,39.17
2018-06-07T10:13:41.999Z,38.91
2018-06-07T10:14:54.085Z,39.15
2018-06-07T10:15:44.313Z,39.04
2018-06-07T10:16:41.802Z,39.11
2018-06-07T10:17:41.674Z,38.74
2018-06-07T10:19:04.808Z,38.89
2018-06-07T10:20:05.475Z,38.99
2018-06-07T10:21:05.453Z,39.15
2018-06-07T10:22:05.319Z,39.37
2018-06-07T10:23:05.443Z,39.40
2018-06-07T10:24:05.375Z,39.60
2018-06-07T10:25:05.182Z,39.81
2018-06-07T10:26:04.713Z,39.49
2018-06-07T10:27:05.483Z,39.38
2018-06-07T10:28:05.166Z,39.53
2018-06-07T10:29:04.791Z,39.78
2018-06-07T10:30:05.480Z,39.77
2018-06-07T10:31:05.197Z,39.89
2018-06-07T10:32:05.083Z,39.87
2018-06-07T10:33:05.880Z,39.29
2018-06-07T10:34:05.714Z,39.31
2018-06-07T10:35:05.447Z,39.29
2018-06-07T10:36:05.525Z,39.30
2018-06-07T10:37:05.663Z,39.09
2018-06-07T10:38:05.466Z,39.07
2018-06-07T10:39:05.092Z,39.07
2018-06-07T10:40:05.993Z,38.96
2018-06-07T10:41:06.268Z,39.11
2018-06-07T10:42:05.251Z,39.19
2018-06-07T10:43:05.053Z,39.31
2018-06-07T10:44:06.024Z,39.56
2018-06-07T10:45:05.174Z,39.65
2018-06-07T10:46:26.787Z,39.60
2018-06-07T10:47:27.791Z,39.36
2018-06-07T10:48:49.077Z,39.51
2018-06-07T10:49:50.306Z,39.51
2018-06-07T10:50:49.206Z,39.25
2018-06-07T10:52:32.702Z,39.53
2018-06-07T10:53:36.034Z,39.49
2018-06-07T10:54:33.692Z,39.58
2018-06-07T10:55:33.520Z,39.72
2018-06-07T10:56:33.236Z,39.67
2018-06-07T10:57:32.840Z,40.06
2018-06-07T10:58:33.731Z,40.11
2018-06-07T10:59:55.540Z,40.04
2018-06-07T11:00:56.628Z,39.72
2018-06-07T11:02:16.998Z,39.49
2018-06-07T11:03:17.174Z,39.43
2018-06-07T11:04:17.246Z,39.30
2018-06-07T11:05:17.618Z,39.58
2018-06-07T11:06:40.230Z,39.58
2018-06-07T11:07:40.954Z,39.63
2018-06-07T11:08:40.804Z,40.02
2018-06-07T11:09:40.408Z,40.27
2018-06-07T11:10:40.268Z,40.44
2018-06-07T11:12:02.887Z,40.69
2018-06-07T11:13:03.863Z,40.92
2018-06-07T11:14:25.464Z,41.24
2018-06-07T11:15:26.291Z,41.50
2018-06-07T11:16:26.259Z,41.34
2018-06-07T11:17:25.998Z,41.18
2018-06-07T11:18:25.743Z,40.99
2018-06-07T11:19:25.606Z,40.84
2018-06-07T11:20:26.814Z,40.97
2018-06-07T11:21:25.704Z,41.14
2018-06-07T11:22:25.317Z,41.33
2018-06-07T11:23:25.242Z,41.19
2018-06-07T11:24:25.943Z,41.15
2018-06-07T11:25:26.721Z,40.78
2018-06-07T11:26:25.781Z,40.46
2018-06-07T11:27:25.488Z,40.41
2018-06-07T11:28:26.340Z,40.33
2018-06-07T11:29:25.105Z,40.15
2018-06-07T11:30:25.654Z,40.28
2018-06-07T11:31:25.391Z,40.84
2018-06-07T11:32:26.925Z,41.21
2018-06-07T11:34:33.164Z,40.84
2018-06-07T11:35:32.142Z,40.21
2018-06-07T11:36:31.907Z,39.97
2018-06-07T11:37:32.925Z,39.87
2018-06-07T11:38:32.900Z,39.99
2018-06-07T11:39:32.766Z,40.18
2018-06-07T11:40:32.797Z,40.40
2018-06-07T11:41:32.650Z,40.56
2018-06-07T11:42:32.497Z,40.72
2018-06-07T11:43:33.998Z,40.70
2018-06-07T11:44:56.038Z,40.26
2018-06-07T11:45:55.463Z,40.11
2018-06-07T11:46:56.337Z,40.04
2018-06-07T11:47:56.913Z,40.30
2018-06-07T11:48:56.059Z,40.26
2018-06-07T11:49:55.133Z,40.27
2018-06-07T11:50:55.572Z,40.24
2018-06-07T11:51:55.630Z,40.04
2018-06-07T11:52:55.862Z,40.00
2018-06-07T11:53:55.551Z,39.94
2018-06-07T11:54:56.583Z,39.96
2018-06-07T11:55:55.675Z,40.16
2018-06-07T11:56:55.830Z,40.41
2018-06-07T11:57:55.885Z,40.78
2018-06-07T11:59:38.122Z,41.07
2018-06-07T12:01:00.396Z,41.03
2018-06-07T12:02:01.113Z,41.06
2018-06-07T12:03:01.115Z,41.21
2018-06-07T12:04:01.191Z,41.16
2018-06-07T12:05:01.234Z,41.26
2018-06-07T12:06:01.181Z,41.52
2018-06-07T12:07:01.042Z,41.87
2018-06-07T12:08:00.953Z,42.19
2018-06-07T12:09:01.704Z,42.47
2018-06-07T12:10:00.514Z,42.48
2018-06-07T12:11:02.023Z,41.75
2018-06-07T12:12:01.244Z,41.16
2018-06-07T12:13:01.154Z,41.18
2018-06-07T12:14:01.074Z,40.96
2018-06-07T12:15:01.037Z,41.21
2018-06-07T12:16:23.014Z,41.59
2018-06-07T12:17:23.746Z,41.52
2018-06-07T12:18:24.767Z,41.45
2018-06-07T12:19:46.106Z,41.62
2018-06-07T12:20:46.215Z,41.71
2018-06-07T12:21:46.187Z,41.70
2018-06-07T12:22:45.833Z,41.57
2018-06-07T12:23:45.623Z,41.52
2018-06-07T12:24:45.405Z,41.63
2018-06-07T12:26:08.575Z,41.45
2018-06-07T12:27:08.700Z,41.38
2018-06-07T12:28:30.527Z,41.19
2018-06-07T12:29:31.406Z,41.21
2018-06-07T12:30:31.147Z,40.95
2018-06-07T12:31:30.959Z,40.91
2018-06-07T12:32:51.997Z,40.43
2018-06-07T12:33:53.096Z,40.38
2018-06-07T12:34:54.283Z,40.00
2018-06-07T12:35:52.210Z,39.78
2018-06-07T12:36:52.807Z,39.65
2018-06-07T12:37:52.413Z,39.62
2018-06-07T12:38:52.225Z,39.44
2018-06-07T12:40:13.862Z,39.18
2018-06-07T12:41:15.620Z,38.95
2018-06-07T12:42:14.552Z,39.14
2018-06-07T12:43:14.220Z,39.36
2018-06-07T12:44:14.208Z,39.26
2018-06-07T12:45:13.991Z,39.37
2018-06-07T12:46:14.552Z,38.83
2018-06-07T12:47:14.283Z,38.27
2018-06-07T12:48:13.824Z,38.15
2018-06-07T12:49:36.171Z,38.50
2018-06-07T12:50:35.970Z,38.67
2018-06-07T12:51:37.977Z,38.55
2018-06-07T12:52:36.906Z,38.27
2018-06-07T12:53:37.631Z,37.84
2018-06-07T12:54:36.565Z,37.25
2018-06-07T12:55:36.566Z,36.83
2018-06-07T12:56:36.974Z,36.52
2018-06-07T12:57:37.092Z,36.18
2018-06-07T12:58:36.642Z,35.93
2018-06-07T12:59:58.098Z,35.86
2018-06-07T13:01:20.297Z,36.20
2018-06-07T13:02:21.212Z,36.62
2018-06-07T13:03:20.955Z,37.10
2018-06-07T13:04:20.876Z,37.03
2018-06-07T13:05:20.711Z,37.30
2018-06-07T13:06:21.973Z,37.56
2018-06-07T13:07:21.026Z,37.68
2018-06-07T13:08:21.852Z,37.90
2018-06-07T13:09:20.426Z,38.19
2018-06-07T13:10:21.418Z,38.43
2018-06-07T13:11:21.372Z,38.82
2018-06-07T13:12:21.471Z,39.12
2018-06-07T13:13:21.398Z,39.52
2018-06-07T13:14:21.354Z,39.72
2018-06-07T13:15:42.680Z,39.43
2018-06-07T13:16:43.244Z,39.02
2018-06-07T13:18:04.743Z,38.39
2018-06-07T13:19:27.178Z,37.83
2018-06-07T13:20:28.027Z,37.45
2018-06-07T13:21:27.750Z,37.25
2018-06-07T13:22:27.757Z,37.01
2018-06-07T13:23:27.546Z,36.67
2018-06-07T13:24:27.221Z,36.27
2018-06-07T13:25:28.079Z,35.90
2018-06-07T13:26:48.633Z,35.70
2018-06-07T13:27:49.604Z,35.45
2018-06-07T13:28:49.860Z,35.55
2018-06-07T13:29:48.757Z,35.70
2018-06-07T13:30:49.628Z,35.82
2018-06-07T13:31:49.262Z,35.67
2018-06-07T13:32:49.057Z,35.78
2018-06-07T13:33:49.177Z,35.70
2018-06-07T13:34:49.278Z,36.01
2018-06-07T13:35:49.051Z,36.17
2018-06-07T13:36:48.832Z,36.00
2018-06-07T13:37:49.727Z,35.82
2018-06-07T13:38:49.426Z,35.52